Time;durP1;ratioP1;P1;durP2;ratioP2;P2;SDS_P1;SDS_P2;PMS_P1;PMS_P2;Temp;Humidity;BMP_temperature;BMP_pressure;BME280_temperature;BME280_humidity;BME280_pressure;Samples;Min_cycle;Max_cycle;Signal;HPM_P1;HPM_P2
2023/09/09 00:02:13;;;;;;;;;;;15.70;99.90;;;;;;5084101;28;19983;-71
2023/09/09 00:04:40;;;;;;;;;;;15.70;99.90;;;;;;5083816;28;19991;-71
2023/09/09 00:07:11;;;;;;;;;;;15.60;99.90;;;;;;5083977;28;19975;-70
2023/09/09 00:09:54;;;;;;;;;;;15.60;99.90;;;;;;5083272;28;20111;-71
2023/09/09 00:12:21;;;;;;;;;;;15.60;99.90;;;;;;5083935;28;19983;-70
2023/09/09 00:14:47;;;;;;;;;;;15.50;99.90;;;;;;5083278;28;19956;-71
2023/09/09 00:17:14;;;;;;;;;;;15.50;99.90;;;;;;5083825;28;19983;-70
2023/09/09 00:19:40;;;;;;;;;;;15.50;99.90;;;;;;5083136;28;19927;-69
2023/09/09 00:22:07;;;;;;;;;;;15.50;99.90;;;;;;5083895;28;19988;-71
2023/09/09 00:24:34;;;;;;;;;;;15.40;99.90;;;;;;5083355;28;19984;-70
2023/09/09 00:27:02;;;;;;;;;;;15.40;99.90;;;;;;5083454;28;20007;-70
2023/09/09 00:29:29;;;;;;;;;;;15.20;99.90;;;;;;5083433;28;19982;-70
2023/09/09 00:31:56;;;;;;;;;;;15.20;99.90;;;;;;5083469;28;19924;-69
2023/09/09 00:34:22;;;;;;;;;;;15.10;99.90;;;;;;5083184;28;19963;-70
2023/09/09 00:36:49;;;;;;;;;;;15.10;99.90;;;;;;5083290;28;19988;-71
2023/09/09 00:39:17;;;;;;;;;;;15.10;99.90;;;;;;5082668;28;19920;-70
2023/09/09 00:41:43;;;;;;;;;;;15.10;99.90;;;;;;5083544;28;19967;-71
2023/09/09 00:44:11;;;;;;;;;;;15.00;99.90;;;;;;5083149;28;19920;-70
2023/09/09 00:46:38;;;;;;;;;;;15.00;99.90;;;;;;5083070;28;20379;-71
2023/09/09 00:49:05;;;;;;;;;;;15.00;99.90;;;;;;5082928;28;19920;-70
2023/09/09 00:51:31;;;;;;;;;;;15.00;99.90;;;;;;5083505;28;19972;-70
2023/09/09 00:53:59;;;;;;;;;;;14.90;99.90;;;;;;5083360;28;19956;-71
2023/09/09 00:56:26;;;;;;;;;;;14.90;99.90;;;;;;5082947;28;19983;-70
2023/09/09 00:58:53;;;;;;;;;;;14.90;99.90;;;;;;5084464;28;20243;-70
2023/09/09 01:01:21;;;;;;;;;;;14.90;99.90;;;;;;5087113;28;19927;-70
2023/09/09 01:03:51;;;;;;;;;;;14.90;99.90;;;;;;5086522;28;19984;-69
2023/09/09 01:06:18;;;;;;;;;;;14.80;99.90;;;;;;5087004;28;19920;-70
2023/09/09 01:08:45;;;;;;;;;;;14.80;99.90;;;;;;5086494;28;19956;-70
2023/09/09 01:11:19;;;;;;;;;;;14.80;99.90;;;;;;5086423;28;19927;-70
2023/09/09 01:13:45;;;;;;;;;;;14.70;99.90;;;;;;5086602;28;19963;-70
2023/09/09 01:16:13;;;;;;;;;;;14.70;99.90;;;;;;5086765;28;20112;-70
2023/09/09 01:18:41;;;;;;;;;;;14.70;99.90;;;;;;5086373;28;19991;-71
2023/09/09 01:21:09;;;;;;;;;;;14.60;99.90;;;;;;5086760;28;19952;-70
2023/09/09 01:23:37;;;;;;;;;;;14.60;99.90;;;;;;5086523;28;19947;-70
2023/09/09 01:26:04;;;;;;;;;;;14.60;99.90;;;;;;5086576;28;19920;-70
2023/09/09 01:28:31;;;;;;;;;;;14.60;99.90;;;;;;5086600;28;19983;-70
2023/09/09 01:30:58;;;;;;;;;;;14.50;99.90;;;;;;5086548;28;19970;-70
2023/09/09 01:33:25;;;;;;;;;;;14.50;99.90;;;;;;5086418;28;19987;-71
2023/09/09 01:35:51;;;;;;;;;;;14.40;99.90;;;;;;5086945;28;19927;-71
2023/09/09 01:38:23;;;;;;;;;;;14.30;99.90;;;;;;5085821;28;19926;-70
2023/09/09 01:40:51;;;;;;;;;;;14.30;99.90;;;;;;5086086;28;19920;-71
2023/09/09 01:43:17;;;;;;;;;;;14.20;99.90;;;;;;5086365;28;19991;-71
2023/09/09 01:45:44;;;;;;;;;;;14.20;99.90;;;;;;5086236;28;19920;-71
2023/09/09 01:48:10;;;;;;;;;;;14.10;99.90;;;;;;5086334;28;19927;-71
2023/09/09 01:50:37;;;;;;;;;;;14.10;99.90;;;;;;5086088;28;19987;-70
2023/09/09 01:53:04;;;;;;;;;;;14.10;99.90;;;;;;5086106;28;19927;-70
2023/09/09 01:55:30;;;;;;;;;;;14.10;99.90;;;;;;5085910;28;19952;-71
2023/09/09 01:57:58;;;;;;;;;;;14.10;99.90;;;;;;5085882;28;20119;-71
2023/09/09 02:00:27;;;;;;;;;;;14.10;99.90;;;;;;5085545;28;20259;-71
2023/09/09 02:02:54;;;;;;;;;;;14.10;99.90;;;;;;5085870;28;19921;-70
2023/09/09 02:05:20;;;;;;;;;;;14.10;99.90;;;;;;5085675;28;19920;-71
2023/09/09 02:07:47;;;;;;;;;;;14.10;99.90;;;;;;5085929;28;19943;-70
2023/09/09 02:10:19;;;;;;;;;;;14.10;99.90;;;;;;5084393;28;19952;-71
2023/09/09 02:12:46;;;;;;;;;;;14.10;99.90;;;;;;5085462;28;19959;-70
2023/09/09 02:15:14;;;;;;;;;;;14.10;99.90;;;;;;5085853;28;19982;-70
2023/09/09 02:17:41;;;;;;;;;;;14.00;99.90;;;;;;5085642;28;19924;-71
2023/09/09 02:20:08;;;;;;;;;;;14.00;99.90;;;;;;5085071;28;19927;-70
2023/09/09 02:22:35;;;;;;;;;;;14.00;99.90;;;;;;5085612;28;19921;-71
2023/09/09 02:25:03;;;;;;;;;;;14.00;99.90;;;;;;5085145;28;19996;-71
2023/09/09 02:27:30;;;;;;;;;;;14.00;99.90;;;;;;5085855;28;19942;-70
2023/09/09 02:29:56;;;;;;;;;;;13.90;99.90;;;;;;5085049;28;19991;-70
2023/09/09 02:32:24;;;;;;;;;;;13.90;99.90;;;;;;5085520;28;19921;-69
2023/09/09 02:34:51;;;;;;;;;;;13.90;99.90;;;;;;5085088;28;19925;-71
2023/09/09 02:37:18;;;;;;;;;;;13.90;99.90;;;;;;5085304;28;19921;-71
2023/09/09 02:39:45;;;;;;;;;;;13.80;99.90;;;;;;5085163;28;19952;-71
2023/09/09 02:42:14;;;;;;;;;;;13.80;99.90;;;;;;5085287;28;19962;-70
2023/09/09 02:44:41;;;;;;;;;;;13.80;99.90;;;;;;5084878;28;20115;-71
2023/09/09 02:47:08;;;;;;;;;;;13.70;99.90;;;;;;5085198;28;20174;-71
2023/09/09 02:49:36;;;;;;;;;;;13.70;99.90;;;;;;5084984;28;19978;-71
2023/09/09 02:52:03;;;;;;;;;;;13.70;99.90;;;;;;5084696;28;19967;-70
2023/09/09 02:54:29;;;;;;;;;;;13.70;99.90;;;;;;5084917;28;19920;-70
2023/09/09 02:56:56;;;;;;;;;;;13.70;99.90;;;;;;5084706;28;19988;-71
2023/09/09 02:59:23;;;;;;;;;;;13.70;99.90;;;;;;5084574;28;19988;-70
2023/09/09 03:01:49;;;;;;;;;;;13.60;99.90;;;;;;5084644;28;19962;-71
2023/09/09 03:04:16;;;;;;;;;;;13.60;99.90;;;;;;5084741;28;20134;-70
2023/09/09 03:06:45;;;;;;;;;;;13.60;99.90;;;;;;5084715;28;19952;-71
2023/09/09 03:09:12;;;;;;;;;;;13.50;99.90;;;;;;5084418;28;19979;-71
2023/09/09 03:11:39;;;;;;;;;;;13.50;99.90;;;;;;5084292;28;19924;-71
2023/09/09 03:14:06;;;;;;;;;;;13.50;99.90;;;;;;5084060;28;19927;-71
2023/09/09 03:16:32;;;;;;;;;;;13.50;99.90;;;;;;5084211;28;20200;-71
2023/09/09 03:19:01;;;;;;;;;;;13.50;99.90;;;;;;5083533;28;20285;-71
2023/09/09 03:21:27;;;;;;;;;;;13.40;99.90;;;;;;5083670;28;19927;-70
2023/09/09 03:23:55;;;;;;;;;;;13.40;99.90;;;;;;5084528;28;19988;-70
2023/09/09 03:26:23;;;;;;;;;;;13.40;99.90;;;;;;5084376;28;20059;-71
2023/09/09 03:28:49;;;;;;;;;;;13.30;99.90;;;;;;5084017;28;19920;-70
2023/09/09 03:31:16;;;;;;;;;;;13.30;99.90;;;;;;5084338;28;19987;-71
2023/09/09 03:33:43;;;;;;;;;;;13.30;99.90;;;;;;5083917;28;20284;-71
2023/09/09 03:36:10;;;;;;;;;;;13.30;99.90;;;;;;5083810;28;19958;-71
2023/09/09 03:38:37;;;;;;;;;;;13.30;99.90;;;;;;5083899;28;19921;-71
2023/09/09 03:41:06;;;;;;;;;;;13.30;99.90;;;;;;5083922;28;19922;-70
2023/09/09 03:43:32;;;;;;;;;;;13.20;99.90;;;;;;5084056;28;19927;-71
2023/09/09 03:45:59;;;;;;;;;;;13.20;99.90;;;;;;5084156;28;19951;-70
2023/09/09 03:48:26;;;;;;;;;;;13.20;99.90;;;;;;5083938;28;19927;-72
2023/09/09 03:50:57;;;;;;;;;;;13.20;99.90;;;;;;5083715;28;19995;-71
2023/09/09 03:53:23;;;;;;;;;;;13.20;99.90;;;;;;5083966;28;19948;-71
2023/09/09 03:55:50;;;;;;;;;;;13.20;99.90;;;;;;5083920;28;19920;-70
2023/09/09 03:58:18;;;;;;;;;;;13.10;99.90;;;;;;5083891;28;19927;-71
2023/09/09 04:00:46;;;;;;;;;;;13.10;99.90;;;;;;5083705;28;19995;-70
2023/09/09 04:03:13;;;;;;;;;;;13.10;99.90;;;;;;5083842;28;19921;-71
2023/09/09 04:05:40;;;;;;;;;;;13.10;99.90;;;;;;5083869;28;19987;-71
2023/09/09 04:08:09;;;;;;;;;;;13.00;99.90;;;;;;5083699;28;19951;-70
2023/09/09 04:10:35;;;;;;;;;;;13.00;99.90;;;;;;5083223;28;19920;-71
2023/09/09 04:13:02;;;;;;;;;;;13.00;99.90;;;;;;5083626;28;19988;-70
2023/09/09 04:15:30;;;;;;;;;;;12.90;99.90;;;;;;5083796;28;19952;-71
2023/09/09 04:17:56;;;;;;;;;;;12.90;99.90;;;;;;5083695;28;19921;-71
2023/09/09 04:20:23;;;;;;;;;;;12.90;99.90;;;;;;5083521;28;19988;-71
2023/09/09 04:22:50;;;;;;;;;;;13.00;99.90;;;;;;5083649;28;19921;-71
2023/09/09 04:25:16;;;;;;;;;;;13.00;99.90;;;;;;5083599;28;19920;-71
2023/09/09 04:27:43;;;;;;;;;;;13.00;99.90;;;;;;5083496;28;20276;-70
2023/09/09 04:30:10;;;;;;;;;;;12.90;99.90;;;;;;5083262;28;19991;-71
2023/09/09 04:32:38;;;;;;;;;;;12.90;99.90;;;;;;5084955;28;19959;-70
2023/09/09 04:35:05;;;;;;;;;;;12.90;99.90;;;;;;5087579;28;19952;-70
2023/09/09 04:37:32;;;;;;;;;;;12.90;99.90;;;;;;5087643;28;20031;-71
2023/09/09 04:39:59;;;;;;;;;;;12.80;99.90;;;;;;5087305;28;20258;-71
2023/09/09 04:42:26;;;;;;;;;;;12.80;99.90;;;;;;5087752;28;19987;-71
2023/09/09 04:44:52;;;;;;;;;;;12.80;99.90;;;;;;5087379;28;20263;-71
2023/09/09 04:47:19;;;;;;;;;;;12.80;99.90;;;;;;5087730;28;19987;-71
2023/09/09 04:49:47;;;;;;;;;;;12.80;99.90;;;;;;5087575;28;19966;-71
2023/09/09 04:52:14;;;;;;;;;;;12.80;99.90;;;;;;5087597;28;20164;-71
2023/09/09 04:54:42;;;;;;;;;;;12.70;99.90;;;;;;5087467;28;19987;-71
2023/09/09 04:57:09;;;;;;;;;;;12.70;99.90;;;;;;5087520;28;20120;-70
2023/09/09 04:59:38;;;;;;;;;;;12.70;99.90;;;;;;5086662;28;19927;-71
2023/09/09 05:02:04;;;;;;;;;;;12.70;99.90;;;;;;5087600;28;19928;-71
2023/09/09 05:04:31;;;;;;;;;;;12.70;99.90;;;;;;5087320;28;19948;-71
2023/09/09 05:06:59;;;;;;;;;;;12.70;99.90;;;;;;5087105;28;19987;-71
2023/09/09 05:09:27;;;;;;;;;;;12.70;99.90;;;;;;5086912;28;19955;-71
2023/09/09 05:11:53;;;;;;;;;;;12.70;99.90;;;;;;5087253;28;19921;-71
2023/09/09 05:14:20;;;;;;;;;;;12.60;99.90;;;;;;5086855;28;19958;-71
2023/09/09 05:16:46;;;;;;;;;;;12.70;99.90;;;;;;5087234;28;20123;-72
2023/09/09 05:19:13;;;;;;;;;;;12.70;99.90;;;;;;5086868;28;19926;-71
2023/09/09 05:21:40;;;;;;;;;;;12.70;99.90;;;;;;5087088;28;19948;-71
2023/09/09 05:24:08;;;;;;;;;;;12.70;99.90;;;;;;5087003;28;19987;-72
2023/09/09 05:26:34;;;;;;;;;;;12.70;99.90;;;;;;5086565;28;19952;-71
2023/09/09 05:29:02;;;;;;;;;;;12.70;99.90;;;;;;5086463;28;19951;-71
2023/09/09 05:31:28;;;;;;;;;;;12.70;99.90;;;;;;5086838;28;19988;-71
2023/09/09 05:33:55;;;;;;;;;;;12.70;99.90;;;;;;5086786;28;19927;-70
2023/09/09 05:36:21;;;;;;;;;;;12.70;99.90;;;;;;5086486;28;19995;-71
2023/09/09 05:38:48;;;;;;;;;;;12.80;99.90;;;;;;5086310;28;19920;-71
2023/09/09 05:41:16;;;;;;;;;;;12.80;99.90;;;;;;5086329;28;20222;-71
2023/09/09 05:43:42;;;;;;;;;;;12.80;99.90;;;;;;5066445;28;20266;-71
2023/09/09 05:46:10;;;;;;;;;;;12.80;99.90;;;;;;5066393;28;19987;-71
2023/09/09 05:48:37;;;;;;;;;;;12.80;99.90;;;;;;5066083;28;19920;-71
2023/09/09 05:51:03;;;;;;;;;;;12.90;99.90;;;;;;5066316;28;19962;-71
2023/09/09 05:53:30;;;;;;;;;;;12.90;99.90;;;;;;5066071;28;19921;-71
2023/09/09 05:55:57;;;;;;;;;;;12.90;99.90;;;;;;5066390;28;19948;-70
2023/09/09 05:58:25;;;;;;;;;;;12.90;99.90;;;;;;5065875;28;19920;-76
2023/09/09 06:00:51;;;;;;;;;;;13.00;99.90;;;;;;5066344;28;19921;-72
2023/09/09 06:03:18;;;;;;;;;;;13.00;99.90;;;;;;5066281;28;20159;-72
2023/09/09 06:05:45;;;;;;;;;;;13.10;99.90;;;;;;5061444;28;20090;-72
2023/09/09 06:08:12;;;;;;;;;;;13.10;99.90;;;;;;5048307;28;19921;-72
2023/09/09 06:10:39;;;;;;;;;;;13.20;99.90;;;;;;5065915;28;20097;-72
2023/09/09 06:13:05;;;;;;;;;;;13.20;99.90;;;;;;5059781;28;19980;-72
2023/09/09 06:15:33;;;;;;;;;;;13.20;99.90;;;;;;5045877;28;19988;-71
2023/09/09 06:18:00;;;;;;;;;;;13.30;99.90;;;;;;5045894;28;19988;-69
2023/09/09 06:20:27;;;;;;;;;;;13.40;99.90;;;;;;5045506;28;19921;-72
2023/09/09 06:22:53;;;;;;;;;;;13.40;99.90;;;;;;5045913;28;19921;-72
2023/09/09 06:25:20;;;;;;;;;;;13.50;99.90;;;;;;5060388;28;20213;-71
2023/09/09 06:27:47;;;;;;;;;;;13.60;99.90;;;;;;5065713;28;19952;-70
2023/09/09 06:30:13;;;;;;;;;;;13.60;99.90;;;;;;5065425;28;20012;-71
2023/09/09 06:32:41;;;;;;;;;;;13.60;99.90;;;;;;5065405;28;19952;-71
2023/09/09 06:35:08;;;;;;;;;;;13.70;99.90;;;;;;5065474;28;19952;-71
2023/09/09 06:37:35;;;;;;;;;;;13.80;99.90;;;;;;5065482;28;19952;-71
2023/09/09 06:40:02;;;;;;;;;;;13.80;99.90;;;;;;5064711;28;19927;-71
2023/09/09 06:42:28;;;;;;;;;;;13.90;99.90;;;;;;5065441;28;19921;-71
2023/09/09 06:44:55;;;;;;;;;;;14.00;99.90;;;;;;5065614;28;19988;-71
2023/09/09 06:47:22;;;;;;;;;;;14.00;99.90;;;;;;5065296;28;19928;-71
2023/09/09 06:49:50;;;;;;;;;;;14.10;99.90;;;;;;5064941;28;19959;-71
2023/09/09 06:52:17;;;;;;;;;;;14.20;99.90;;;;;;5065353;28;19988;-71
2023/09/09 06:54:44;;;;;;;;;;;14.30;99.90;;;;;;5065316;28;19952;-71
2023/09/09 06:57:11;;;;;;;;;;;14.30;99.90;;;;;;5064916;28;19924;-71
2023/09/09 06:59:37;;;;;;;;;;;14.50;99.90;;;;;;5064647;28;19920;-71
2023/09/09 07:02:06;;;;;;;;;;;14.60;99.90;;;;;;5046922;28;19984;-71
2023/09/09 07:04:32;;;;;;;;;;;14.70;99.90;;;;;;5045100;28;19921;-71
2023/09/09 07:07:00;;;;;;;;;;;14.70;99.90;;;;;;5044935;28;19952;-71
2023/09/09 07:09:27;;;;;;;;;;;14.80;99.90;;;;;;5044850;28;19960;-71
2023/09/09 07:11:53;;;;;;;;;;;14.90;99.90;;;;;;5044783;28;19921;-71
2023/09/09 07:14:20;;;;;;;;;;;15.00;99.90;;;;;;5044698;28;19927;-70
2023/09/09 07:16:47;;;;;;;;;;;15.10;99.90;;;;;;5044164;28;19921;-70
2023/09/09 07:19:13;;;;;;;;;;;15.10;99.90;;;;;;5044466;28;19921;-70
2023/09/09 07:21:40;;;;;;;;;;;15.20;99.90;;;;;;5044492;28;19929;-70
2023/09/09 07:24:08;;;;;;;;;;;15.30;99.90;;;;;;5044199;28;20216;-70
2023/09/09 07:26:35;;;;;;;;;;;15.40;99.90;;;;;;5044553;28;19952;-70
2023/09/09 07:29:03;;;;;;;;;;;15.60;99.90;;;;;;5063600;28;20124;-71
2023/09/09 07:31:29;;;;;;;;;;;15.70;99.90;;;;;;5064477;28;19921;-70
2023/09/09 07:33:56;;;;;;;;;;;15.80;99.90;;;;;;5064249;28;19921;-71
2023/09/09 07:36:23;;;;;;;;;;;16.00;99.90;;;;;;5064295;28;19920;-71
2023/09/09 07:38:52;;;;;;;;;;;16.20;99.90;;;;;;5063287;28;19952;-72
2023/09/09 07:41:28;;;;;;;;;;;16.30;99.90;;;;;;5063472;28;19924;-71
2023/09/09 07:43:54;;;;;;;;;;;16.40;99.90;;;;;;5064069;28;19959;-71
2023/09/09 07:46:21;;;;;;;;;;;16.50;99.90;;;;;;5044139;28;20006;-71
2023/09/09 07:48:57;;;;;;;;;;;16.60;99.90;;;;;;5043001;28;19952;-71
2023/09/09 07:51:24;;;;;;;;;;;16.70;99.90;;;;;;5044251;28;19953;-71
2023/09/09 07:53:52;;;;;;;;;;;16.90;99.90;;;;;;5043992;28;19921;-71
2023/09/09 07:56:18;;;;;;;;;;;17.10;99.90;;;;;;5044364;28;19943;-71
2023/09/09 07:58:46;;;;;;;;;;;17.20;99.90;;;;;;5044115;28;19927;-71
2023/09/09 08:01:13;;;;;;;;;;;17.30;99.90;;;;;;5044882;28;19949;-72
2023/09/09 08:03:40;;;;;;;;;;;17.50;99.90;;;;;;5063501;28;20212;-71
2023/09/09 08:06:07;;;;;;;;;;;17.70;99.90;;;;;;5063767;28;20013;-70
2023/09/09 08:08:35;;;;;;;;;;;17.80;99.90;;;;;;5062931;28;19995;-71
2023/09/09 08:11:02;;;;;;;;;;;18.00;99.90;;;;;;5063324;28;19943;-71
2023/09/09 08:13:28;;;;;;;;;;;18.20;99.90;;;;;;5063428;28;19921;-72
2023/09/09 08:15:57;;;;;;;;;;;18.30;99.90;;;;;;5063448;28;19921;-71
2023/09/09 08:18:24;;;;;;;;;;;18.50;99.90;;;;;;5063547;28;19927;-72
2023/09/09 08:20:51;;;;;;;;;;;18.60;99.90;;;;;;5063201;28;19921;-71
2023/09/09 08:23:18;;;;;;;;;;;18.80;99.90;;;;;;5063231;28;19952;-71
2023/09/09 08:25:44;;;;;;;;;;;19.00;99.90;;;;;;5063173;28;20230;-70
2023/09/09 08:28:11;;;;;;;;;;;19.00;99.90;;;;;;5060377;28;19931;-70
2023/09/09 08:30:37;;;;;;;;;;;19.10;99.90;;;;;;5043211;28;20000;-70
2023/09/09 08:33:05;;;;;;;;;;;19.20;99.90;;;;;;5043363;28;19952;-70
2023/09/09 08:35:33;;;;;;;;;;;19.30;99.90;;;;;;5045926;28;19964;-70
2023/09/09 08:38:01;;;;;;;;;;;19.40;99.90;;;;;;5063079;28;19987;-70
2023/09/09 08:40:28;;;;;;;;;;;19.50;99.90;;;;;;5062990;28;20000;-71
2023/09/09 08:42:58;;;;;;;;;;;19.70;99.90;;;;;;5063233;28;19987;-70
2023/09/09 08:45:33;;;;;;;;;;;19.80;99.90;;;;;;5062841;28;19920;-70
2023/09/09 08:48:04;;;;;;;;;;;20.00;99.90;;;;;;5062850;28;20204;-71
2023/09/09 08:50:32;;;;;;;;;;;20.10;99.90;;;;;;5062794;28;20109;-69
2023/09/09 08:53:02;;;;;;;;;;;20.30;99.90;;;;;;5062981;28;19992;-69
2023/09/09 08:55:29;;;;;;;;;;;20.40;99.90;;;;;;5062248;28;19920;-70
2023/09/09 08:57:55;;;;;;;;;;;20.50;99.90;;;;;;5061977;28;19963;-69
2023/09/09 09:00:22;;;;;;;;;;;20.70;99.90;;;;;;5061919;28;19927;-69
2023/09/09 09:02:49;;;;;;;;;;;20.80;99.90;;;;;;5062595;28;19955;-68
2023/09/09 09:05:17;;;;;;;;;;;20.90;99.90;;;;;;5061706;28;19952;-69
2023/09/09 09:07:45;;;;;;;;;;;21.10;99.90;;;;;;5062911;28;20236;-69
2023/09/09 09:10:12;;;;;;;;;;;21.30;99.90;;;;;;5062638;28;20395;-70
2023/09/09 09:12:39;;;;;;;;;;;21.50;99.90;;;;;;5062620;28;19920;-69
2023/09/09 09:15:06;;;;;;;;;;;21.70;99.90;;;;;;5062856;28;19987;-69
2023/09/09 09:17:37;;;;;;;;;;;21.80;99.90;;;;;;5062760;28;19979;-70
2023/09/09 09:20:07;;;;;;;;;;;21.90;99.90;;;;;;5064168;28;19920;-70
2023/09/09 09:22:33;;;;;;;;;;;22.00;99.90;;;;;;5066521;28;20147;-69
2023/09/09 09:25:02;;;;;;;;;;;22.00;99.90;;;;;;5066524;28;19921;-71
2023/09/09 09:27:31;;;;;;;;;;;22.20;99.90;;;;;;5066451;28;19925;-68
2023/09/09 09:29:58;;;;;;;;;;;22.30;99.90;;;;;;5072717;28;19963;-69
2023/09/09 09:32:25;;;;;;;;;;;22.40;99.90;;;;;;5086206;28;19920;-68
2023/09/09 09:34:51;;;;;;;;;;;22.50;99.90;;;;;;5086263;28;19971;-70
2023/09/09 09:37:19;;;;;;;;;;;22.60;99.90;;;;;;5068466;28;19921;-69
2023/09/09 09:39:46;;;;;;;;;;;22.70;99.90;;;;;;5065210;28;19966;-69
2023/09/09 09:42:14;;;;;;;;;;;22.80;99.90;;;;;;5066136;28;19920;-69
2023/09/09 09:44:41;;;;;;;;;;;22.90;99.90;;;;;;5066094;28;19952;-69
2023/09/09 09:47:08;;;;;;;;;;;23.00;99.90;;;;;;5066023;28;19984;-70
2023/09/09 09:49:35;;;;;;;;;;;23.10;99.90;;;;;;5065427;28;19983;-70
2023/09/09 09:52:03;;;;;;;;;;;23.20;99.90;;;;;;5065649;28;19987;-68
2023/09/09 09:54:29;;;;;;;;;;;23.30;99.90;;;;;;5065829;28;19921;-69
2023/09/09 09:56:58;;;;;;;;;;;23.40;99.90;;;;;;5065880;28;19921;-69
2023/09/09 09:59:28;;;;;;;;;;;23.50;99.90;;;;;;5065698;28;20181;-69
2023/09/09 10:01:55;;;;;;;;;;;23.60;99.90;;;;;;5065733;28;19928;-70
2023/09/09 10:04:22;;;;;;;;;;;23.60;99.90;;;;;;5065331;28;19955;-69
2023/09/09 10:06:51;;;;;;;;;;;23.80;99.90;;;;;;5065663;28;20001;-69
2023/09/09 10:09:23;;;;;;;;;;;23.90;99.90;;;;;;5065477;28;19989;-71
2023/09/09 10:11:54;;;;;;;;;;;24.00;99.90;;;;;;5065224;28;19949;-70
2023/09/09 10:14:23;;;;;;;;;;;24.10;99.90;;;;;;5065152;28;20113;-69
2023/09/09 10:16:52;;;;;;;;;;;24.30;99.90;;;;;;5065035;28;20208;-69
2023/09/09 10:19:19;;;;;;;;;;;24.40;99.90;;;;;;5064905;28;19927;-69
2023/09/09 10:21:47;;;;;;;;;;;24.50;99.90;;;;;;5065389;28;19988;-69
2023/09/09 10:24:15;;;;;;;;;;;24.60;99.90;;;;;;5065176;28;19987;-69
2023/09/09 10:26:42;;;;;;;;;;;24.70;99.90;;;;;;5065041;28;19956;-69
2023/09/09 10:29:09;;;;;;;;;;;24.70;99.90;;;;;;5062033;28;19992;-69
2023/09/09 10:31:36;;;;;;;;;;;24.80;99.90;;;;;;5084387;28;20499;-68
2023/09/09 10:34:05;;;;;;;;;;;24.90;99.90;;;;;;5085134;28;19924;-69
2023/09/09 10:36:32;;;;;;;;;;;25.00;99.90;;;;;;5073929;28;19952;-68
2023/09/09 10:38:59;;;;;;;;;;;25.20;99.90;;;;;;5064466;28;20272;-69
2023/09/09 10:41:26;;;;;;;;;;;25.30;99.90;;;;;;5063971;28;19995;-69
2023/09/09 10:43:53;;;;;;;;;;;25.50;99.90;;;;;;5064534;28;20243;-69
2023/09/09 10:46:32;;;;;;;;;;;25.50;99.90;;;;;;5064031;28;20193;-69
2023/09/09 10:49:01;;;;;;;;;;;25.60;99.90;;;;;;5064680;28;19928;-69
2023/09/09 10:51:30;;;;;;;;;;;25.70;99.90;;;;;;5064815;28;19959;-70
2023/09/09 10:54:06;;;;;;;;;;;25.80;99.90;;;;;;5064544;28;20332;-70
2023/09/09 10:56:38;;;;;;;;;;;25.90;99.90;;;;;;5063867;28;19952;-69
2023/09/09 10:59:15;;;;;;;;;;;26.10;99.90;;;;;;5064566;28;19921;-69
2023/09/09 11:01:41;;;;;;;;;;;26.20;99.90;;;;;;5063975;28;20013;-68
2023/09/09 11:04:18;;;;;;;;;;;26.20;99.90;;;;;;5064692;28;19952;-69
2023/09/09 11:06:58;;;;;;;;;;;26.30;99.90;;;;;;5064460;28;19996;-69
2023/09/09 11:09:28;;;;;;;;;;;26.40;99.90;;;;;;5063959;28;19959;-70
2023/09/09 11:11:56;;;;;;;;;;;26.50;99.90;;;;;;5064267;28;19959;-69
2023/09/09 11:14:22;;;;;;;;;;;26.70;99.90;;;;;;5064127;28;19952;-69
2023/09/09 11:16:54;;;;;;;;;;;26.70;99.90;;;;;;5064325;28;19988;-70
2023/09/09 11:19:23;;;;;;;;;;;26.90;99.90;;;;;;5063856;28;19995;-68
2023/09/09 11:21:51;;;;;;;;;;;27.00;99.90;;;;;;5063827;28;19988;-69
2023/09/09 11:24:19;;;;;;;;;;;27.10;99.90;;;;;;5064208;28;19960;-70
2023/09/09 11:26:46;;;;;;;;;;;27.30;99.90;;;;;;5063784;28;19987;-69
2023/09/09 11:29:14;;;;;;;;;;;27.30;99.90;;;;;;5063766;28;19952;-69
2023/09/09 11:31:40;;;;;;;;;;;27.40;99.90;;;;;;5063741;28;20208;-69
2023/09/09 11:34:07;;;;;;;;;;;27.40;99.90;;;;;;5063873;28;19943;-70
2023/09/09 11:36:34;;;;;;;;;;;27.50;99.90;;;;;;5063648;28;19984;-70
2023/09/09 11:39:01;;;;;;;;;;;27.60;99.90;;;;;;5063195;28;19921;-70
2023/09/09 11:41:31;;;;;;;;;;;27.60;99.90;;;;;;5063033;28;20151;-69
2023/09/09 11:43:59;;;;;;;;;;;27.70;99.90;;;;;;5063120;28;19984;-69
2023/09/09 11:46:26;;;;;;;;;;;27.80;99.90;;;;;;5063707;28;19988;-69
2023/09/09 11:48:53;;;;;;;;;;;27.90;99.90;;;;;;5062237;28;19996;-70
2023/09/09 11:51:19;;;;;;;;;;;28.00;99.90;;;;;;5063821;28;19983;-69
2023/09/09 11:53:46;;;;;;;;;;;28.10;99.90;;;;;;5063411;28;19952;-70
2023/09/09 11:56:14;;;;;;;;;;;28.30;99.90;;;;;;5063376;28;20259;-70
2023/09/09 11:58:43;;;;;;;;;;;28.40;99.90;;;;;;5062930;28;19920;-70
2023/09/09 12:01:10;;;;;;;;;;;28.50;99.90;;;;;;5063059;28;20466;-70
2023/09/09 12:03:36;;;;;;;;;;;28.60;99.90;;;;;;5063215;28;20175;-70
2023/09/09 12:06:04;;;;;;;;;;;28.70;99.90;;;;;;5063237;28;20259;-69
2023/09/09 12:08:31;;;;;;;;;;;28.70;99.90;;;;;;5047399;28;19988;-70
2023/09/09 12:10:58;;;;;;;;;;;28.80;99.90;;;;;;5043317;28;19964;-70
2023/09/09 12:13:25;;;;;;;;;;;29.00;99.90;;;;;;5043136;28;20303;-69
2023/09/09 12:15:53;;;;;;;;;;;29.10;99.90;;;;;;5043360;28;19963;-69
2023/09/09 12:18:19;;;;;;;;;;;29.30;99.90;;;;;;5043393;28;19988;-69
2023/09/09 12:20:59;;;;;;;;;;;29.40;99.90;;;;;;5043100;28;19971;-69
2023/09/09 12:23:26;;;;;;;;;;;29.50;99.90;;;;;;5043097;28;20270;-69
2023/09/09 12:25:53;;;;;;;;;;;29.70;99.90;;;;;;5043425;28;20000;-69
2023/09/09 12:28:19;;;;;;;;;;;29.70;99.90;;;;;;5043285;28;19921;-69
2023/09/09 12:30:46;;;;;;;;;;;29.80;99.90;;;;;;5042873;28;19921;-70
2023/09/09 12:33:15;;;;;;;;;;;30.00;99.90;;;;;;5043160;28;19989;-69
2023/09/09 12:35:43;;;;;;;;;;;30.00;99.90;;;;;;5047233;28;19983;-69
2023/09/09 12:38:10;;;;;;;;;;;30.10;99.90;;;;;;5063155;28;19927;-70
2023/09/09 12:40:50;;;;;;;;;;;30.20;99.90;;;;;;5062549;28;19920;-69
2023/09/09 12:43:17;;;;;;;;;;;30.20;99.90;;;;;;5063040;28;19928;-70
2023/09/09 12:45:47;;;;;;;;;;;30.30;99.90;;;;;;5063081;28;19952;-69
2023/09/09 12:48:15;;;;;;;;;;;30.40;99.90;;;;;;5062846;28;19921;-68
2023/09/09 12:50:42;;;;;;;;;;;30.50;99.90;;;;;;5076211;28;19952;-71
2023/09/09 12:53:09;;;;;;;;;;;30.60;99.90;;;;;;5082730;28;19920;-70
2023/09/09 12:55:35;;;;;;;;;;;30.70;99.90;;;;;;5087149;28;19987;-70
2023/09/09 12:58:02;;;;;;;;;;;30.70;99.90;;;;;;5087293;28;19954;-70
2023/09/09 13:00:29;;;;;;;;;;;30.80;99.90;;;;;;5069607;28;19948;-70
2023/09/09 13:02:56;;;;;;;;;;;30.90;99.90;;;;;;5066946;28;19927;-70
2023/09/09 13:05:24;;;;;;;;;;;30.80;99.90;;;;;;5066962;28;19992;-70
2023/09/09 13:07:50;;;;;;;;;;;30.80;99.90;;;;;;5067023;28;19992;-70
2023/09/09 13:10:19;;;;;;;;;;;30.90;99.90;;;;;;5065727;28;20267;-70
2023/09/09 13:12:46;;;;;;;;;;;30.90;99.90;;;;;;5073142;28;19988;-70
2023/09/09 13:15:13;;;;;;;;;;;31.10;99.90;;;;;;5066894;28;19920;-70
2023/09/09 13:17:39;;;;;;;;;;;31.10;99.90;;;;;;5066664;28;19921;-70
2023/09/09 13:20:07;;;;;;;;;;;31.30;99.90;;;;;;5066659;28;19987;-70
2023/09/09 13:22:35;;;;;;;;;;;31.40;99.90;;;;;;5086157;28;19996;-71
2023/09/09 13:25:02;;;;;;;;;;;31.50;99.90;;;;;;5086782;28;19983;-71
2023/09/09 13:27:28;;;;;;;;;;;31.60;99.90;;;;;;5086861;28;19987;-71
2023/09/09 13:29:55;;;;;;;;;;;31.70;99.90;;;;;;5086562;28;19943;-71
2023/09/09 13:32:21;;;;;;;;;;;31.80;99.90;;;;;;5086750;28;19951;-70
2023/09/09 13:34:48;;;;;;;;;;;31.90;99.90;;;;;;5086373;28;19959;-70
2023/09/09 13:37:15;;;;;;;;;;;32.00;99.90;;;;;;5069795;28;20004;-70
2023/09/09 13:39:43;;;;;;;;;;;32.20;99.90;;;;;;5066021;28;19921;-67
2023/09/09 13:42:09;;;;;;;;;;;32.20;99.90;;;;;;5066660;28;19921;-70
2023/09/09 13:44:36;;;;;;;;;;;32.10;99.90;;;;;;5066336;28;19921;-69
2023/09/09 13:47:03;;;;;;;;;;;32.00;99.90;;;;;;5066468;28;20181;-69
2023/09/09 13:49:29;;;;;;;;;;;32.00;99.90;;;;;;5066719;28;19952;-69
2023/09/09 13:51:56;;;;;;;;;;;31.90;99.90;;;;;;5067163;28;19920;-69
2023/09/09 13:54:25;;;;;;;;;;;32.00;99.90;;;;;;5077374;28;19921;-70
2023/09/09 13:56:54;;;;;;;;;;;32.10;99.90;;;;;;5086824;28;19952;-70
2023/09/09 13:59:20;;;;;;;;;;;32.10;99.90;;;;;;5085590;28;20167;-70
2023/09/09 14:01:47;;;;;;;;;;;32.20;99.90;;;;;;5086096;28;19921;-70
2023/09/09 14:04:14;;;;;;;;;;;32.00;99.90;;;;;;5085722;28;19920;-70
2023/09/09 14:06:42;;;;;;;;;;;31.80;99.90;;;;;;5084951;28;19989;-70
2023/09/09 14:09:08;;;;;;;;;;;32.00;99.90;;;;;;5085498;28;19921;-70
2023/09/09 14:11:35;;;;;;;;;;;32.10;99.90;;;;;;5085353;28;20259;-70
2023/09/09 14:14:03;;;;;;;;;;;32.20;99.90;;;;;;5085345;28;19951;-70
2023/09/09 14:16:30;;;;;;;;;;;32.30;99.90;;;;;;5085356;28;19963;-69
2023/09/09 14:18:56;;;;;;;;;;;32.40;99.90;;;;;;5085270;28;19987;-70